createdAt,value
2018-12-08T00:01:51.108Z,4.70
2018-12-08T00:04:24.317Z,4.60
2018-12-08T00:06:59.164Z,4.50
2018-12-08T00:09:33.178Z,4.30
2018-12-08T00:12:07.860Z,4.20
2018-12-08T00:14:41.359Z,4.00
2018-12-08T00:17:17.761Z,3.90
2018-12-08T00:19:52.403Z,3.90
2018-12-08T00:22:25.760Z,3.80
2018-12-08T00:25:02.143Z,3.70
2018-12-08T00:27:46.907Z,3.70
2018-12-08T00:30:33.967Z,3.70
2018-12-08T00:33:10.128Z,3.60
2018-12-08T00:35:53.530Z,3.50
2018-12-08T00:38:31.733Z,3.50
2018-12-08T00:41:15.768Z,3.50
2018-12-08T00:43:55.377Z,3.40
2018-12-08T00:46:29.664Z,3.40
2018-12-08T00:49:04.005Z,3.30
2018-12-08T00:51:38.887Z,3.30
2018-12-08T00:54:14.183Z,3.30
2018-12-08T00:56:49.851Z,3.20
2018-12-08T00:59:24.061Z,3.20
2018-12-08T01:02:00.150Z,3.20
2018-12-08T01:04:33.941Z,3.20
2018-12-08T01:09:54.467Z,3.30
2018-12-08T01:12:36.463Z,3.20
2018-12-08T01:15:13.510Z,3.20
2018-12-08T01:17:50.329Z,3.10
2018-12-08T01:23:20.076Z,3.10
2018-12-08T01:28:44.991Z,3.10
2018-12-08T01:31:22.751Z,3.10
2018-12-08T01:33:57.269Z,3.10
2018-12-08T01:36:37.139Z,3.00
2018-12-08T01:39:13.688Z,3.00
2018-12-08T01:44:29.959Z,3.00
2018-12-08T01:47:03.831Z,3.00
2018-12-08T01:49:40.358Z,3.00
2018-12-08T01:54:58.086Z,2.90
2018-12-08T01:57:33.265Z,2.80
2018-12-08T02:00:12.243Z,2.80
2018-12-08T02:02:53.183Z,2.80
2018-12-08T02:05:31.391Z,2.70
2018-12-08T02:08:05.423Z,2.80
2018-12-08T02:10:47.670Z,2.70
2018-12-08T02:13:23.507Z,2.70
2018-12-08T02:16:00.612Z,2.70
2018-12-08T02:18:36.448Z,2.70
2018-12-08T02:21:14.774Z,2.70
2018-12-08T02:27:00.571Z,2.60
2018-12-08T02:29:45.085Z,2.60
2018-12-08T02:32:19.368Z,2.60
2018-12-08T02:34:54.866Z,2.60
2018-12-08T02:40:12.343Z,2.60
2018-12-08T02:42:48.967Z,2.60
2018-12-08T02:45:23.670Z,2.60
2018-12-08T02:47:58.090Z,2.60
2018-12-08T02:53:18.278Z,2.50
2018-12-08T02:56:01.268Z,2.50
2018-12-08T02:58:36.109Z,2.50
2018-12-08T03:01:12.702Z,2.50
2018-12-08T03:03:47.599Z,2.50
2018-12-08T03:06:23.547Z,2.60
2018-12-08T03:09:00.306Z,2.60
2018-12-08T03:11:42.512Z,2.60
2018-12-08T03:14:19.587Z,2.60
2018-12-08T03:16:59.975Z,2.60
2018-12-08T03:19:34.257Z,2.60
2018-12-08T03:22:08.552Z,2.60
2018-12-08T03:24:42.218Z,2.60
2018-12-08T03:27:21.352Z,2.70
2018-12-08T03:29:58.953Z,2.70
2018-12-08T03:32:41.347Z,2.80
2018-12-08T03:35:20.273Z,2.80
2018-12-08T03:37:58.974Z,2.80
2018-12-08T03:40:36.090Z,2.80
2018-12-08T03:43:13.312Z,2.90
2018-12-08T03:48:29.601Z,2.90
2018-12-08T03:51:03.600Z,3.00
2018-12-08T03:53:44.380Z,2.90
2018-12-08T03:59:32.500Z,2.90
2018-12-08T04:02:09.066Z,2.90
2018-12-08T04:04:43.755Z,3.00
2018-12-08T04:07:19.951Z,3.00
2018-12-08T04:09:54.385Z,3.00
2018-12-08T04:12:38.358Z,3.00
2018-12-08T04:15:19.005Z,3.00
2018-12-08T04:17:52.535Z,3.00
2018-12-08T04:20:32.843Z,3.00
2018-12-08T04:23:07.036Z,3.00
2018-12-08T04:25:43.155Z,3.10
2018-12-08T04:28:25.319Z,3.10
2018-12-08T04:31:01.693Z,3.10
2018-12-08T04:33:44.187Z,3.10
2018-12-08T04:36:44.795Z,3.20
2018-12-08T04:39:22.299Z,3.10
2018-12-08T04:41:58.793Z,3.20
2018-12-08T04:44:35.602Z,3.20
2018-12-08T04:47:14.626Z,3.20
2018-12-08T04:52:32.391Z,3.30
2018-12-08T04:58:35.807Z,3.20
2018-12-08T05:01:10.953Z,3.20
2018-12-08T05:04:21.920Z,3.20
2018-12-08T05:06:55.727Z,3.20
2018-12-08T05:09:30.673Z,3.10
2018-12-08T05:12:08.450Z,3.10
2018-12-08T05:14:42.063Z,3.10
2018-12-08T05:17:16.172Z,3.10
2018-12-08T05:19:50.132Z,3.00
2018-12-08T05:22:27.697Z,3.00
2018-12-08T05:25:07.633Z,3.00
2018-12-08T05:30:41.580Z,2.90
2018-12-08T05:36:07.594Z,2.80
2018-12-08T05:38:42.759Z,2.80
2018-12-08T05:44:12.198Z,2.70
2018-12-08T05:46:47.125Z,2.60
2018-12-08T05:52:07.114Z,2.60
2018-12-08T05:54:49.345Z,2.60
2018-12-08T05:57:23.653Z,2.60
2018-12-08T06:02:52.498Z,2.50
2018-12-08T06:05:29.752Z,2.60
2018-12-08T06:08:06.545Z,2.60
2018-12-08T06:10:46.728Z,2.50
2018-12-08T06:13:23.189Z,2.50
2018-12-08T06:15:59.386Z,2.50
2018-12-08T06:18:36.687Z,2.50
2018-12-08T06:21:10.966Z,2.40
2018-12-08T06:23:47.393Z,2.40
2018-12-08T06:26:24.179Z,2.40
2018-12-08T06:29:04.355Z,2.30
2018-12-08T06:31:39.520Z,2.30
2018-12-08T06:34:15.458Z,2.20
2018-12-08T06:36:50.401Z,2.20
2018-12-08T06:39:25.652Z,2.20
2018-12-08T06:42:00.080Z,2.10
2018-12-08T06:47:12.776Z,2.10
2018-12-08T06:49:46.297Z,2.10
2018-12-08T06:52:20.252Z,2.10
2018-12-08T06:54:53.745Z,2.10
2018-12-08T06:57:27.605Z,2.10
2018-12-08T07:00:02.981Z,2.10
2018-12-08T07:02:36.213Z,2.10
2018-12-08T07:05:10.843Z,2.10
2018-12-08T07:07:45.131Z,2.10
2018-12-08T07:10:20.741Z,2.10
2018-12-08T07:13:02.361Z,2.00
2018-12-08T07:15:38.388Z,2.10
2018-12-08T07:18:12.258Z,2.20
2018-12-08T07:20:45.480Z,2.20
2018-12-08T07:23:20.626Z,2.20
2018-12-08T07:25:57.687Z,2.30
2018-12-08T07:28:31.377Z,2.30
2018-12-08T07:31:07.149Z,2.40
2018-12-08T07:33:43.585Z,2.40
2018-12-08T07:36:22.397Z,2.50
2018-12-08T07:38:57.107Z,2.50
2018-12-08T07:41:32.394Z,2.50
2018-12-08T07:44:14.917Z,2.50
2018-12-08T07:46:50.520Z,2.50
2018-12-08T07:49:28.686Z,2.60
2018-12-08T07:52:06.538Z,2.60
2018-12-08T07:54:44.111Z,2.60
2018-12-08T07:57:22.257Z,2.60
2018-12-08T07:59:58.765Z,2.60
2018-12-08T08:02:40.120Z,2.60
2018-12-08T08:05:17.775Z,2.70
2018-12-08T08:07:53.084Z,2.60
2018-12-08T08:10:26.319Z,2.70
2018-12-08T08:13:02.551Z,2.80
2018-12-08T08:15:42.024Z,2.80
2018-12-08T08:18:15.721Z,2.80
2018-12-08T08:20:52.205Z,2.80
2018-12-08T08:23:27.655Z,2.80
2018-12-08T08:26:02.712Z,2.80
2018-12-08T08:28:36.717Z,2.70
2018-12-08T08:31:13.997Z,2.70
2018-12-08T08:33:49.092Z,2.70
2018-12-08T08:36:27.491Z,2.70
2018-12-08T08:39:06.067Z,2.80
2018-12-08T08:41:40.278Z,2.80
2018-12-08T08:44:13.674Z,2.80
2018-12-08T08:46:50.091Z,2.80
2018-12-08T08:49:27.214Z,2.80
2018-12-08T08:52:00.800Z,2.80
2018-12-08T08:54:34.965Z,2.90
2018-12-08T08:57:20.625Z,2.90
2018-12-08T08:59:55.163Z,2.80
2018-12-08T09:02:30.758Z,2.80
2018-12-08T09:05:04.206Z,2.90
2018-12-08T09:07:37.312Z,2.90
2018-12-08T09:10:14.020Z,2.90
2018-12-08T09:12:51.581Z,2.90
2018-12-08T09:15:26.397Z,2.90
2018-12-08T09:18:00.934Z,2.90
2018-12-08T09:20:35.879Z,3.00
2018-12-08T09:23:13.524Z,3.00
2018-12-08T09:25:47.425Z,3.10
2018-12-08T09:28:21.447Z,3.10
2018-12-08T09:30:56.154Z,3.10
2018-12-08T09:33:31.766Z,3.10
2018-12-08T09:36:08.574Z,3.10
2018-12-08T09:38:43.038Z,3.20
2018-12-08T09:41:35.281Z,3.20
2018-12-08T09:44:10.356Z,3.20
2018-12-08T09:46:45.172Z,3.30
2018-12-08T09:49:19.172Z,3.40
2018-12-08T09:51:55.435Z,3.40
2018-12-08T09:54:30.270Z,3.40
2018-12-08T10:00:08.823Z,3.40
2018-12-08T10:02:50.173Z,3.50
2018-12-08T10:05:28.176Z,3.50
2018-12-08T10:08:12.529Z,3.60
2018-12-08T10:10:51.990Z,3.60
2018-12-08T10:13:30.081Z,3.60
2018-12-08T10:16:03.461Z,3.60
2018-12-08T10:18:38.131Z,3.60
2018-12-08T10:21:11.268Z,3.60
2018-12-08T10:23:45.149Z,3.60
2018-12-08T10:26:20.935Z,3.70
2018-12-08T10:28:55.153Z,3.60
2018-12-08T10:31:28.955Z,3.70
2018-12-08T10:34:02.794Z,3.60
2018-12-08T10:36:35.958Z,3.70
2018-12-08T10:39:11.505Z,3.70
2018-12-08T10:41:45.189Z,3.70
2018-12-08T10:44:20.231Z,3.60
2018-12-08T10:46:57.987Z,3.60
2018-12-08T10:49:32.666Z,3.70
2018-12-08T10:52:06.646Z,3.70
2018-12-08T10:54:43.553Z,3.70
2018-12-08T10:57:20.788Z,3.70
2018-12-08T10:59:55.364Z,3.70
2018-12-08T11:02:39.574Z,3.70
2018-12-08T11:05:15.506Z,3.70
2018-12-08T11:07:50.222Z,3.70
2018-12-08T11:10:23.660Z,3.60
2018-12-08T11:13:04.236Z,3.60
2018-12-08T11:15:42.230Z,3.60
2018-12-08T11:18:17.310Z,3.60
2018-12-08T11:20:52.761Z,3.60
2018-12-08T11:23:28.045Z,3.60
2018-12-08T11:26:02.472Z,3.60
2018-12-08T11:28:37.106Z,3.60
2018-12-08T11:31:15.269Z,3.70
2018-12-08T11:33:52.751Z,3.60
2018-12-08T11:36:27.675Z,3.70
2018-12-08T11:39:01.764Z,3.60
2018-12-08T11:41:38.608Z,3.60
2018-12-08T11:44:16.841Z,3.60
2018-12-08T11:46:51.498Z,3.60
2018-12-08T11:49:24.942Z,3.60
2018-12-08T11:51:59.536Z,3.60
2018-12-08T11:54:34.978Z,3.60
2018-12-08T11:57:10.569Z,3.60
2018-12-08T11:59:43.893Z,3.60
2018-12-08T12:02:20.918Z,3.60
2018-12-08T12:04:55.024Z,3.60
2018-12-08T12:07:30.931Z,3.60
2018-12-08T12:10:04.454Z,3.50
2018-12-08T12:12:45.444Z,3.50
2018-12-08T12:15:19.437Z,3.60
2018-12-08T12:17:54.197Z,3.60
2018-12-08T12:20:29.017Z,3.60
2018-12-08T12:23:04.359Z,3.60
2018-12-08T12:25:40.481Z,3.70
2018-12-08T12:28:15.493Z,3.70
2018-12-08T12:30:50.323Z,3.70
2018-12-08T12:33:26.286Z,3.70
2018-12-08T12:36:07.219Z,3.60
2018-12-08T12:38:42.262Z,3.60
2018-12-08T12:41:16.235Z,3.60
2018-12-08T12:43:51.605Z,3.70
2018-12-08T12:46:25.661Z,3.70
2018-12-08T12:49:00.928Z,3.70
2018-12-08T12:51:36.019Z,3.70
2018-12-08T12:54:10.156Z,3.70
2018-12-08T12:56:53.655Z,3.70
2018-12-08T12:59:30.434Z,3.80
2018-12-08T13:02:07.363Z,3.80
2018-12-08T13:04:40.595Z,3.70
2018-12-08T13:07:15.471Z,3.70
2018-12-08T13:09:49.331Z,3.60
2018-12-08T13:12:23.704Z,3.60
2018-12-08T13:14:59.820Z,3.70
2018-12-08T13:17:33.648Z,3.70
2018-12-08T13:20:10.562Z,3.70
2018-12-08T13:22:52.468Z,3.70
2018-12-08T13:25:29.129Z,3.70
2018-12-08T13:28:05.973Z,3.80
2018-12-08T13:30:39.952Z,3.80
2018-12-08T13:33:13.323Z,3.80
2018-12-08T13:36:04.239Z,3.80
2018-12-08T13:38:40.838Z,3.80
2018-12-08T13:41:19.476Z,3.80
2018-12-08T13:44:01.805Z,3.90
2018-12-08T13:46:34.933Z,3.90
2018-12-08T13:49:11.015Z,3.90
2018-12-08T13:51:44.558Z,3.90
2018-12-08T13:54:58.863Z,3.90
2018-12-08T13:57:36.671Z,3.90
2018-12-08T14:00:12.336Z,4.00
2018-12-08T14:02:47.410Z,4.00
2018-12-08T14:05:21.336Z,4.00
2018-12-08T14:07:58.501Z,4.00
2018-12-08T14:10:33.650Z,4.00
2018-12-08T14:13:11.754Z,4.00
2018-12-08T14:15:44.988Z,4.00
2018-12-08T14:18:22.009Z,4.10
2018-12-08T14:20:57.562Z,4.00
2018-12-08T14:23:34.752Z,4.10
2018-12-08T14:26:11.240Z,4.10
2018-12-08T14:28:48.481Z,4.10
2018-12-08T14:31:22.996Z,4.10
2018-12-08T14:33:59.347Z,4.10
2018-12-08T14:36:43.372Z,4.10
2018-12-08T14:39:17.738Z,4.10
2018-12-08T14:41:53.034Z,4.10
2018-12-08T14:44:29.050Z,4.10
2018-12-08T14:47:02.298Z,4.10
2018-12-08T14:49:37.809Z,4.10
2018-12-08T14:52:15.163Z,4.10
2018-12-08T14:54:50.660Z,4.10
2018-12-08T14:57:25.119Z,4.10
2018-12-08T15:00:01.034Z,4.00
2018-12-08T15:02:36.100Z,4.10
2018-12-08T15:05:13.698Z,4.10
2018-12-08T15:07:48.608Z,4.10
2018-12-08T15:10:22.024Z,4.20
2018-12-08T15:15:37.192Z,4.00
2018-12-08T15:18:13.817Z,4.00
2018-12-08T15:20:54.983Z,4.00
2018-12-08T15:23:28.837Z,4.00
2018-12-08T15:26:05.408Z,4.10
2018-12-08T15:31:21.069Z,4.10
2018-12-08T15:33:57.497Z,4.20
2018-12-08T15:36:32.314Z,4.20
2018-12-08T15:41:50.522Z,4.10
2018-12-08T15:44:23.672Z,4.00
2018-12-08T15:46:58.368Z,4.00
2018-12-08T15:49:33.765Z,4.10
2018-12-08T15:52:13.422Z,4.10
2018-12-08T15:54:50.677Z,4.10
2018-12-08T15:57:29.601Z,4.20
2018-12-08T16:00:03.039Z,4.20
2018-12-08T16:02:36.617Z,4.20
2018-12-08T16:05:12.832Z,4.20
2018-12-08T16:07:47.843Z,4.20
2018-12-08T16:10:22.626Z,4.10
2018-12-08T16:12:57.058Z,4.10
2018-12-08T16:15:32.644Z,4.20
2018-12-08T16:18:07.221Z,4.20
2018-12-08T16:20:44.799Z,4.20
2018-12-08T16:23:21.096Z,4.30
2018-12-08T16:25:54.523Z,4.30
2018-12-08T16:28:29.537Z,4.30
2018-12-08T16:31:06.380Z,4.30
2018-12-08T16:33:41.547Z,4.40
2018-12-08T16:36:28.610Z,4.40
2018-12-08T16:39:03.030Z,4.40
2018-12-08T16:41:37.193Z,4.50
2018-12-08T16:44:13.174Z,4.50
2018-12-08T16:46:47.848Z,4.50
2018-12-08T16:49:21.692Z,4.50
2018-12-08T16:52:02.344Z,4.60
2018-12-08T16:54:38.362Z,4.70
2018-12-08T16:57:33.094Z,4.80
2018-12-08T17:00:13.204Z,4.90
2018-12-08T17:02:47.380Z,4.90
2018-12-08T17:05:22.690Z,5.00
2018-12-08T17:07:58.761Z,5.00
2018-12-08T17:10:33.106Z,5.20
2018-12-08T17:13:17.211Z,5.20
2018-12-08T17:15:53.424Z,5.20
2018-12-08T17:18:28.471Z,5.30
2018-12-08T17:21:04.209Z,5.30
2018-12-08T17:23:37.289Z,5.30
2018-12-08T17:26:11.206Z,5.30
2018-12-08T17:28:45.863Z,5.30
2018-12-08T17:31:21.331Z,5.30
2018-12-08T17:34:00.789Z,5.30
2018-12-08T17:36:36.909Z,5.30
2018-12-08T17:39:14.092Z,5.30
2018-12-08T17:42:10.232Z,5.30
2018-12-08T17:44:44.465Z,5.30
2018-12-08T17:47:18.105Z,5.40
2018-12-08T17:49:51.910Z,5.50
2018-12-08T17:52:26.269Z,5.40
2018-12-08T17:55:00.912Z,5.50
2018-12-08T17:57:35.495Z,5.50
2018-12-08T18:00:11.229Z,5.60
2018-12-08T18:02:46.584Z,5.70
2018-12-08T18:05:28.186Z,5.70
2018-12-08T18:08:01.453Z,5.70
2018-12-08T18:10:35.882Z,5.80
2018-12-08T18:13:20.699Z,5.90
2018-12-08T18:15:57.832Z,5.90
2018-12-08T18:18:36.536Z,5.90
2018-12-08T18:21:13.161Z,6.00
2018-12-08T18:23:47.531Z,6.10
2018-12-08T18:26:28.469Z,6.10
2018-12-08T18:29:05.945Z,6.10
2018-12-08T18:31:40.146Z,6.20
2018-12-08T18:34:17.652Z,6.20
2018-12-08T18:36:50.666Z,6.20
2018-12-08T18:39:24.367Z,6.10
2018-12-08T18:42:07.400Z,6.10
2018-12-08T18:44:56.903Z,6.10
2018-12-08T18:47:31.638Z,6.10
2018-12-08T18:50:12.432Z,6.20
2018-12-08T18:52:48.927Z,6.10
2018-12-08T18:55:25.168Z,6.20
2018-12-08T18:58:07.753Z,6.20
2018-12-08T19:00:41.243Z,6.30
2018-12-08T19:03:15.108Z,6.30
2018-12-08T19:05:49.281Z,6.40
2018-12-08T19:08:24.037Z,6.30
2018-12-08T19:11:04.344Z,6.30
2018-12-08T19:13:57.307Z,6.30
2018-12-08T19:16:32.226Z,6.40
2018-12-08T19:19:07.216Z,6.40
2018-12-08T19:21:43.921Z,6.30
2018-12-08T19:24:18.510Z,6.30
2018-12-08T19:26:57.204Z,6.30
2018-12-08T19:29:36.761Z,6.30
2018-12-08T19:32:11.554Z,6.40
2018-12-08T19:34:48.989Z,6.40
2018-12-08T19:37:25.711Z,6.20
2018-12-08T19:40:01.632Z,6.30
2018-12-08T19:45:15.029Z,6.40
2018-12-08T19:47:50.214Z,6.40
2018-12-08T19:50:26.964Z,6.50
2018-12-08T19:53:01.305Z,6.50
2018-12-08T19:55:35.554Z,6.50
2018-12-08T19:58:10.085Z,6.60
2018-12-08T20:00:45.316Z,6.60
2018-12-08T20:03:18.847Z,6.60
2018-12-08T20:05:54.222Z,6.50
2018-12-08T20:08:27.502Z,6.50
2018-12-08T20:11:00.907Z,6.50
2018-12-08T20:13:36.452Z,6.50
2018-12-08T20:16:10.785Z,6.50
2018-12-08T20:18:45.605Z,6.60
2018-12-08T20:21:21.689Z,6.60
2018-12-08T20:23:55.188Z,6.60
2018-12-08T20:26:29.966Z,6.70
2018-12-08T20:29:06.570Z,6.70
2018-12-08T20:31:47.264Z,6.80
2018-12-08T20:34:22.088Z,6.80
2018-12-08T20:36:57.021Z,6.80
2018-12-08T20:39:32.552Z,6.80
2018-12-08T20:42:10.148Z,6.80
2018-12-08T20:44:53.354Z,6.70
2018-12-08T20:47:27.317Z,6.80
2018-12-08T20:50:08.532Z,6.80
2018-12-08T20:52:43.568Z,6.80
2018-12-08T20:55:18.214Z,6.80
2018-12-08T20:57:53.060Z,6.80
2018-12-08T21:00:29.572Z,6.90
2018-12-08T21:03:04.542Z,6.90
2018-12-08T21:05:40.003Z,7.00
2018-12-08T21:08:16.867Z,7.10
2018-12-08T21:10:51.571Z,7.30
2018-12-08T21:13:25.002Z,7.40
2018-12-08T21:16:06.130Z,7.40
2018-12-08T21:18:42.099Z,7.30
2018-12-08T21:21:17.318Z,7.40
2018-12-08T21:23:52.129Z,7.40
2018-12-08T21:26:32.920Z,7.40
2018-12-08T21:29:08.702Z,7.30
2018-12-08T21:31:43.440Z,7.40
2018-12-08T21:34:21.409Z,7.40
2018-12-08T21:36:55.530Z,7.40
2018-12-08T21:39:31.175Z,7.50
2018-12-08T21:42:04.387Z,7.60
2018-12-08T21:44:43.542Z,7.70
2018-12-08T21:47:18.975Z,7.70
2018-12-08T21:49:54.223Z,7.70
2018-12-08T21:52:31.437Z,7.80
2018-12-08T21:55:05.848Z,7.90
2018-12-08T21:57:40.393Z,7.90
2018-12-08T22:00:15.342Z,7.80
2018-12-08T22:02:50.957Z,7.70
2018-12-08T22:05:27.015Z,7.80
2018-12-08T22:08:00.742Z,7.90
2018-12-08T22:10:39.245Z,7.90
2018-12-08T22:13:14.835Z,8.00
2018-12-08T22:15:52.517Z,8.00
2018-12-08T22:18:27.444Z,7.90
2018-12-08T22:21:00.976Z,8.00
2018-12-08T22:23:35.138Z,8.00
2018-12-08T22:26:10.642Z,8.10
2018-12-08T22:28:43.957Z,8.10
2018-12-08T22:31:19.020Z,8.10
2018-12-08T22:33:53.847Z,8.20
2018-12-08T22:36:32.333Z,8.30
2018-12-08T22:39:09.435Z,8.20
2018-12-08T22:41:44.564Z,8.20
2018-12-08T22:44:28.048Z,8.20
2018-12-08T22:47:06.769Z,8.10
2018-12-08T22:49:44.137Z,8.10
2018-12-08T22:52:20.058Z,8.00
2018-12-08T22:55:02.236Z,7.90
2018-12-08T22:57:35.877Z,7.90
2018-12-08T23:00:17.100Z,7.90
2018-12-08T23:02:53.223Z,7.80
2018-12-08T23:05:29.037Z,7.80
2018-12-08T23:08:02.242Z,7.70
2018-12-08T23:10:37.037Z,7.50
2018-12-08T23:13:12.405Z,7.50
2018-12-08T23:15:46.513Z,7.50
2018-12-08T23:18:25.774Z,7.40
2018-12-08T23:21:01.076Z,7.30
2018-12-08T23:23:35.452Z,7.30
2018-12-08T23:26:09.866Z,7.20
2018-12-08T23:28:47.109Z,7.20
2018-12-08T23:31:24.125Z,7.10
2018-12-08T23:33:59.100Z,7.10
2018-12-08T23:36:33.918Z,7.10
2018-12-08T23:39:10.937Z,7.10
2018-12-08T23:41:45.180Z,7.10
2018-12-08T23:44:20.434Z,7.10
2018-12-08T23:46:58.019Z,7.10
2018-12-08T23:49:33.467Z,7.10
2018-12-08T23:52:08.841Z,7.10
2018-12-08T23:54:44.705Z,7.10
2018-12-08T23:57:18.760Z,7.00
2018-12-08T23:59:55.827Z,7.00
